Time;durP1;ratioP1;P1;durP2;ratioP2;P2;SDS_P1;SDS_P2;PMS_P1;PMS_P2;Temp;Humidity;BMP_temperature;BMP_pressure;BME280_temperature;BME280_humidity;BME280_pressure;Samples;Min_cycle;Max_cycle;Signal;HPM_P1;HPM_P2
2021/06/21 00:01:48;;;;;;;5.03;2.60;;;;;22.50;100640.00;;;;5110909;28;20186;-77
2021/06/21 00:04:15;;;;;;;5.30;2.17;;;;;22.40;100629.00;;;;5111762;28;20197;-77
2021/06/21 00:06:42;;;;;;;5.60;2.42;;;;;22.40;100639.00;;;;5111553;28;20190;-77
2021/06/21 00:09:10;;;;;;;5.40;2.60;;;;;22.40;100634.00;;;;5110304;28;20194;-78
2021/06/21 00:11:37;;;;;;;4.50;2.25;;;;;22.30;100642.00;;;;5111226;28;20208;-76
2021/06/21 00:14:05;;;;;;;3.08;2.17;;;;;22.30;100640.00;;;;5111293;28;20656;-77
2021/06/21 00:16:34;;;;;;;5.22;2.38;;;;;22.30;100636.00;;;;5110186;28;20193;-78
2021/06/21 00:19:01;;;;;;;2.58;1.92;;;;;22.30;100632.00;;;;5107140;28;20218;-77
2021/06/21 00:21:28;;;;;;;3.40;2.08;;;;;22.20;100629.00;;;;5090989;28;20281;-77
2021/06/21 00:23:56;;;;;;;4.43;2.42;;;;;22.20;100624.00;;;;5090728;28;20202;-78
2021/06/21 00:26:23;;;;;;;5.93;3.03;;;;;22.20;100614.00;;;;5110053;28;20197;-76
2021/06/21 00:28:50;;;;;;;2.33;2.05;;;;;22.10;100618.00;;;;5110567;28;20201;-78
2021/06/21 00:31:17;;;;;;;3.40;2.30;;;;;22.10;100624.00;;;;5110265;28;20190;-77
2021/06/21 00:33:46;;;;;;;3.88;2.20;;;;;22.10;100618.00;;;;5110468;28;20197;-77
2021/06/21 00:36:13;;;;;;;3.10;1.90;;;;;22.10;100621.00;;;;5105107;28;20233;-76
2021/06/21 00:38:40;;;;;;;2.70;1.45;;;;;22.10;100626.00;;;;5103487;28;20229;-77
2021/06/21 00:41:07;;;;;;;3.85;1.98;;;;;22.10;100631.00;;;;5109517;28;20210;-78
2021/06/21 00:43:35;;;;;;;2.05;1.85;;;;;22.00;100625.00;;;;5110039;28;20198;-76
2021/06/21 00:46:02;;;;;;;3.97;1.92;;;;;22.00;100617.00;;;;5109634;28;20842;-76
2021/06/21 00:48:29;;;;;;;4.40;1.95;;;;;22.00;100625.00;;;;5110888;28;20212;-76
2021/06/21 00:50:58;;;;;;;2.05;1.65;;;;;22.00;100628.00;;;;5109478;28;20699;-77
2021/06/21 00:53:26;;;;;;;2.55;1.63;;;;;22.00;100636.00;;;;5090313;28;20198;-77
2021/06/21 00:55:54;;;;;;;2.85;2.20;;;;;21.90;100625.00;;;;5104969;28;20197;-77
2021/06/21 00:58:21;;;;;;;4.18;2.08;;;;;21.90;100625.00;;;;5090926;28;20221;-77
2021/06/21 01:00:48;;;;;;;2.50;2.30;;;;;21.90;100621.00;;;;5104742;28;20206;-77
2021/06/21 01:03:16;;;;;;;3.17;2.00;;;;;21.90;100620.00;;;;5090693;28;20199;-77
2021/06/21 01:05:43;;;;;;;2.58;1.75;;;;;21.90;100621.00;;;;5099802;28;20194;-76
2021/06/21 01:08:12;;;;;;;4.80;2.05;;;;;21.80;100617.00;;;;5096154;28;20288;-77
2021/06/21 01:10:42;;;;;;;2.45;1.85;;;;;21.80;100616.00;;;;5099565;28;20206;-76
2021/06/21 01:14:06;;;;;;;3.45;2.25;;;;;21.70;100613.00;;;;5110190;28;20190;-77
2021/06/21 01:16:40;;;;;;;3.65;2.33;;;;;21.70;100613.00;;;;5033282;28;20202;-77
2021/06/21 01:19:16;;;;;;;4.47;2.33;;;;;21.70;100611.00;;;;5047200;28;20215;-77
2021/06/21 01:22:32;;;;;;;2.35;1.92;;;;;21.60;100595.00;;;;5081475;28;20197;-78
2021/06/21 01:25:20;;;;;;;2.08;1.80;;;;;21.60;100603.00;;;;5102192;28;20235;-78
2021/06/21 01:27:55;;;;;;;4.30;1.83;;;;;21.60;100593.00;;;;5109454;28;20201;-79
2021/06/21 01:30:25;;;;;;;2.15;1.90;;;;;21.60;100587.00;;;;5109602;28;20189;-77
2021/06/21 01:32:58;;;;;;;3.28;1.90;;;;;21.50;100591.00;;;;5109612;28;20209;-77
2021/06/21 01:35:39;;;;;;;2.67;2.28;;;;;21.40;100582.00;;;;5100532;28;20619;-78
2021/06/21 01:38:09;;;;;;;2.50;1.95;;;;;21.50;100590.00;;;;5107245;28;20205;-78
2021/06/21 01:40:40;;;;;;;2.08;1.88;;;;;21.50;100589.00;;;;5103215;28;20189;-77
2021/06/21 01:43:10;;;;;;;2.15;1.92;;;;;21.50;100589.00;;;;5108855;28;20190;-78
2021/06/21 01:45:38;;;;;;;3.30;2.08;;;;;21.50;100594.00;;;;5108946;28;20190;-77
2021/06/21 01:48:08;;;;;;;2.28;2.08;;;;;21.40;100595.00;;;;5090086;28;20202;-77
2021/06/21 01:50:36;;;;;;;3.70;2.35;;;;;21.40;100604.00;;;;5088052;28;20209;-78
2021/06/21 01:53:08;;;;;;;3.28;2.00;;;;;21.30;100607.00;;;;5090542;28;20210;-77
2021/06/21 01:55:40;;;;;;;3.25;2.35;;;;;21.30;100609.00;;;;5108010;28;20217;-77
2021/06/21 01:58:10;;;;;;;2.63;2.05;;;;;21.30;100618.00;;;;5108535;28;20204;-76
2021/06/21 02:00:38;;;;;;;3.28;2.05;;;;;21.30;100617.00;;;;5108250;28;20578;-77
2021/06/21 02:03:08;;;;;;;2.30;1.90;;;;;21.20;100624.00;;;;5108832;28;20208;-77
2021/06/21 02:05:37;;;;;;;3.47;2.17;;;;;21.20;100613.00;;;;5109316;28;20190;-78
2021/06/21 02:08:07;;;;;;;2.35;1.90;;;;;21.10;100627.00;;;;5101069;28;20202;-76
2021/06/21 02:10:34;;;;;;;2.40;1.90;;;;;21.10;100637.00;;;;5105259;28;20197;-77
2021/06/21 02:13:03;;;;;;;4.88;2.72;;;;;21.10;100629.00;;;;5108765;28;20205;-77
2021/06/21 02:15:31;;;;;;;2.88;2.10;;;;;21.10;100623.00;;;;5108476;28;20194;-76
2021/06/21 02:17:59;;;;;;;4.15;2.47;;;;;21.10;100627.00;;;;5108911;28;20216;-77
2021/06/21 02:20:28;;;;;;;3.25;2.58;;;;;21.00;100624.00;;;;5108410;28;20225;-77
2021/06/21 02:22:56;;;;;;;3.08;2.00;;;;;21.00;100620.00;;;;5107989;28;20201;-76
2021/06/21 02:25:24;;;;;;;3.88;2.15;;;;;20.90;100627.00;;;;5108023;28;20198;-76
2021/06/21 02:27:52;;;;;;;2.15;1.92;;;;;20.90;100615.00;;;;5108095;28;20201;-76
2021/06/21 02:30:20;;;;;;;3.78;2.47;;;;;20.90;100613.00;;;;5102779;28;20285;-78
2021/06/21 02:32:49;;;;;;;3.75;2.40;;;;;20.80;100604.00;;;;5102532;28;20198;-77
2021/06/21 02:35:17;;;;;;;4.65;2.13;;;;;20.80;100611.00;;;;5101445;28;20218;-78
2021/06/21 02:37:46;;;;;;;2.50;2.10;;;;;20.70;100623.00;;;;5088129;28;20194;-77
2021/06/21 02:40:16;;;;;;;3.67;2.33;;;;;20.70;100610.00;;;;5098718;28;20216;-77
2021/06/21 02:42:44;;;;;;;2.88;2.53;;;;;20.70;100607.00;;;;5107919;28;20621;-77
2021/06/21 02:45:12;;;;;;;2.97;1.83;;;;;20.70;100603.00;;;;5108514;28;20206;-77
2021/06/21 02:47:40;;;;;;;3.13;2.42;;;;;20.70;100601.00;;;;5108198;28;20237;-77
2021/06/21 02:50:09;;;;;;;2.88;1.80;;;;;20.70;100597.00;;;;5108262;28;20607;-77
2021/06/21 02:52:49;;;;;;;2.65;1.98;;;;;20.60;100604.00;;;;5107413;28;20213;-78
2021/06/21 02:55:21;;;;;;;4.47;2.65;;;;;20.60;100592.00;;;;5108297;28;20196;-77
2021/06/21 02:57:57;;;;;;;3.00;1.88;;;;;20.60;100595.00;;;;5107009;28;20219;-77
2021/06/21 03:00:25;;;;;;;3.15;2.10;;;;;20.60;100589.00;;;;5087656;28;20320;-77
2021/06/21 03:02:55;;;;;;;2.95;2.10;;;;;20.50;100588.00;;;;5105181;28;20747;-77
2021/06/21 03:05:22;;;;;;;2.42;2.20;;;;;20.50;100590.00;;;;5112393;28;20225;-78
2021/06/21 03:07:53;;;;;;;3.92;2.53;;;;;20.40;100594.00;;;;5104423;27;20197;-77
2021/06/21 03:10:21;;;;;;;2.45;2.08;;;;;20.50;100596.00;;;;5105367;28;20221;-77
2021/06/21 03:12:49;;;;;;;2.55;1.98;;;;;20.50;100586.00;;;;5111902;28;20197;-77
2021/06/21 03:15:20;;;;;;;3.95;1.92;;;;;20.40;100579.00;;;;5112349;28;20205;-77
2021/06/21 03:17:50;;;;;;;3.75;2.00;;;;;20.40;100583.00;;;;5101182;28;20217;-77
2021/06/21 03:20:19;;;;;;;2.10;1.65;;;;;20.40;100597.00;;;;5097540;28;20268;-77
2021/06/21 03:22:47;;;;;;;3.17;2.17;;;;;20.40;100580.00;;;;5091518;28;20289;-76
2021/06/21 03:25:23;;;;;;;3.40;2.17;;;;;20.40;100579.00;;;;5098519;28;20202;-76
2021/06/21 03:27:51;;;;;;;2.22;1.52;;;;;20.40;100567.00;;;;5111272;28;20675;-76
2021/06/21 03:30:21;;;;;;;3.25;1.60;;;;;20.40;100569.00;;;;5111846;28;20194;-77
2021/06/21 03:32:51;;;;;;;1.50;1.40;;;;;20.40;100570.00;;;;5107903;28;20667;-77
2021/06/21 03:35:20;;;;;;;3.45;1.95;;;;;20.40;100574.00;;;;5096683;28;20225;-77
2021/06/21 03:37:48;;;;;;;1.83;1.60;;;;;20.40;100578.00;;;;5111456;28;20201;-78
2021/06/21 03:40:16;;;;;;;1.98;1.63;;;;;20.40;100570.00;;;;5108829;28;20253;-77
2021/06/21 03:42:44;;;;;;;2.50;1.95;;;;;20.40;100566.00;;;;5109812;28;20204;-77
2021/06/21 03:45:12;;;;;;;3.20;1.85;;;;;20.40;100571.00;;;;5091355;28;20243;-77
2021/06/21 03:47:41;;;;;;;2.60;1.95;;;;;20.40;100570.00;;;;5106967;28;20197;-77
2021/06/21 03:50:10;;;;;;;2.80;2.22;;;;;20.40;100560.00;;;;5111982;28;20651;-77
2021/06/21 03:52:38;;;;;;;2.40;1.65;;;;;20.40;100558.00;;;;5091028;28;20214;-76
2021/06/21 03:55:09;;;;;;;3.00;1.73;;;;;20.40;100565.00;;;;5102143;28;20600;-77
2021/06/21 03:57:42;;;;;;;2.85;1.80;;;;;20.30;100565.00;;;;5090689;28;20210;-77
2021/06/21 04:00:14;;;;;;;1.88;1.50;;;;;20.40;100561.00;;;;5091076;28;20217;-76
2021/06/21 04:02:41;;;;;;;1.90;1.70;;;;;20.40;100559.00;;;;5091264;28;20202;-76
2021/06/21 04:05:09;;;;;;;1.50;1.35;;;;;20.40;100555.00;;;;5090915;28;20194;-76
2021/06/21 04:07:36;;;;;;;2.42;1.35;;;;;20.40;100557.00;;;;5097061;28;20194;-77
2021/06/21 04:10:06;;;;;;;2.85;1.48;;;;;20.40;100558.00;;;;5093553;28;20262;-76
2021/06/21 04:12:35;;;;;;;2.15;1.80;;;;;20.40;100552.00;;;;5107116;28;20197;-75
2021/06/21 04:15:04;;;;;;;1.98;1.63;;;;;20.40;100556.00;;;;5110252;28;20690;-76
2021/06/21 04:17:31;;;;;;;2.00;1.55;;;;;20.50;100560.00;;;;5092865;28;20202;-76
2021/06/21 04:19:58;;;;;;;2.15;1.67;;;;;20.50;100554.00;;;;5090030;28;20607;-76
2021/06/21 04:22:26;;;;;;;2.35;1.60;;;;;20.50;100543.00;;;;5107149;28;20198;-77
2021/06/21 04:24:53;;;;;;;2.92;1.27;;;;;20.50;100542.00;;;;5110117;28;20201;-76
2021/06/21 04:27:20;;;;;;;1.50;1.40;;;;;20.50;100538.00;;;;5109803;28;20753;-76
2021/06/21 04:29:47;;;;;;;2.40;1.42;;;;;20.50;100528.00;;;;5110147;28;20201;-76
2021/06/21 04:32:16;;;;;;;2.72;1.70;;;;;20.40;100528.00;;;;5109573;28;20194;-77
2021/06/21 04:34:43;;;;;;;1.88;1.40;;;;;20.50;100526.00;;;;5109867;28;20208;-76
2021/06/21 04:37:11;;;;;;;3.20;1.60;;;;;20.50;100524.00;;;;5110715;28;20225;-76
2021/06/21 04:39:38;;;;;;;1.20;1.05;;;;;20.50;100524.00;;;;5106774;28;20214;-76
2021/06/21 04:42:06;;;;;;;1.50;1.20;;;;;20.50;100523.00;;;;5110271;28;20197;-77
2021/06/21 04:44:33;;;;;;;1.40;1.10;;;;;20.50;100524.00;;;;5110217;28;20186;-76
2021/06/21 04:47:00;;;;;;;1.70;1.27;;;;;20.40;100521.00;;;;5109514;28;20664;-76
2021/06/21 04:49:29;;;;;;;1.65;1.45;;;;;20.40;100520.00;;;;5110076;28;20219;-76
2021/06/21 04:51:58;;;;;;;2.58;1.40;;;;;20.40;100523.00;;;;5094239;28;20657;-77
2021/06/21 04:54:25;;;;;;;1.42;1.13;;;;;20.50;100523.00;;;;5095416;28;20193;-76
2021/06/21 04:56:52;;;;;;;2.92;1.10;;;;;20.40;100527.00;;;;5109916;28;20196;-76
2021/06/21 04:59:19;;;;;;;2.70;1.25;;;;;20.40;100530.00;;;;5102281;28;20300;-76
2021/06/21 05:01:47;;;;;;;1.95;1.42;;;;;20.50;100528.00;;;;5105173;28;20201;-76
2021/06/21 05:04:14;;;;;;;1.40;1.10;;;;;20.50;100527.00;;;;5107468;28;20213;-76
2021/06/21 05:06:43;;;;;;;1.55;1.33;;;;;20.40;100529.00;;;;5089888;28;20611;-76
2021/06/21 05:09:11;;;;;;;1.63;1.33;;;;;20.40;100525.00;;;;5093975;28;20246;-76
2021/06/21 05:11:39;;;;;;;2.92;1.42;;;;;20.40;100535.00;;;;5107002;28;20212;-76
2021/06/21 05:14:06;;;;;;;4.03;1.00;;;;;20.40;100535.00;;;;5104832;28;20216;-76
2021/06/21 05:16:33;;;;;;;1.27;0.88;;;;;20.40;100533.00;;;;5106182;28;20201;-77
2021/06/21 05:19:01;;;;;;;1.40;0.90;;;;;20.40;100546.00;;;;5104250;28;20205;-76
2021/06/21 05:21:28;;;;;;;1.45;1.20;;;;;20.40;100541.00;;;;5106041;28;20730;-76
2021/06/21 05:23:56;;;;;;;1.83;1.20;;;;;20.40;100543.00;;;;5107585;28;20191;-76
2021/06/21 05:26:24;;;;;;;1.30;0.90;;;;;20.40;100547.00;;;;5105304;28;20198;-76
2021/06/21 05:28:51;;;;;;;1.75;1.15;;;;;20.40;100552.00;;;;5105064;28;20201;-76
2021/06/21 05:31:18;;;;;;;1.80;1.23;;;;;20.40;100548.00;;;;5109206;28;20235;-76
2021/06/21 05:33:45;;;;;;;1.80;1.38;;;;;20.40;100552.00;;;;5109709;28;20598;-76
2021/06/21 05:36:13;;;;;;;1.42;1.15;;;;;20.40;100559.00;;;;5100246;28;20221;-77
2021/06/21 05:38:40;;;;;;;1.60;1.20;;;;;20.40;100559.00;;;;5102870;28;20204;-76
2021/06/21 05:41:09;;;;;;;1.63;1.13;;;;;20.40;100559.00;;;;5106695;28;20221;-77
2021/06/21 05:43:36;;;;;;;1.55;1.38;;;;;20.40;100562.00;;;;5108342;28;20198;-77
2021/06/21 05:46:04;;;;;;;1.75;1.50;;;;;20.40;100571.00;;;;5104167;28;20213;-76
2021/06/21 05:48:31;;;;;;;1.25;1.00;;;;;20.40;100567.00;;;;5099663;28;20194;-75
2021/06/21 05:51:00;;;;;;;1.50;1.40;;;;;20.40;100574.00;;;;5095769;28;20197;-76
2021/06/21 05:53:29;;;;;;;2.63;1.27;;;;;20.40;100576.00;;;;5108188;28;20838;-75
2021/06/21 05:55:56;;;;;;;1.88;1.15;;;;;20.30;100571.00;;;;5107876;28;20221;-75
2021/06/21 05:58:25;;;;;;;1.88;1.02;;;;;20.30;100578.00;;;;5098771;28;20687;-75
2021/06/21 06:00:52;;;;;;;1.50;1.10;;;;;20.30;100576.00;;;;5108740;28;20225;-75
2021/06/21 06:03:19;;;;;;;1.20;1.00;;;;;20.30;100581.00;;;;5099805;28;20190;-76
2021/06/21 06:05:47;;;;;;;1.38;1.00;;;;;20.30;100589.00;;;;5106778;28;20216;-76
2021/06/21 06:08:15;;;;;;;1.10;1.00;;;;;20.30;100588.00;;;;5105915;28;20202;-76
2021/06/21 06:10:42;;;;;;;3.25;1.27;;;;;20.30;100586.00;;;;5108732;28;20258;-74
2021/06/21 06:13:10;;;;;;;1.58;0.90;;;;;20.30;100590.00;;;;5106976;28;20196;-75
2021/06/21 06:15:39;;;;;;;1.10;1.00;;;;;20.30;100574.00;;;;5109415;28;20201;-75
2021/06/21 06:18:06;;;;;;;1.00;0.93;;;;;20.30;100586.00;;;;5106483;28;20193;-75
2021/06/21 06:20:34;;;;;;;0.95;0.80;;;;;20.20;100577.00;;;;5108073;28;20210;-75
2021/06/21 06:23:03;;;;;;;0.57;0.52;;;;;20.20;100577.00;;;;5108274;28;20221;-75
2021/06/21 06:25:31;;;;;;;1.15;0.95;;;;;20.20;100580.00;;;;5108548;28;20259;-75
2021/06/21 06:27:59;;;;;;;1.27;1.17;;;;;20.20;100580.00;;;;5107859;28;20194;-76
2021/06/21 06:30:27;;;;;;;3.53;1.10;;;;;20.20;100587.00;;;;5088968;28;20209;-76
2021/06/21 06:32:55;;;;;;;1.02;0.73;;;;;20.20;100588.00;;;;5087848;28;20693;-76
2021/06/21 06:35:23;;;;;;;2.88;0.80;;;;;20.20;100594.00;;;;5092447;28;20225;-75
2021/06/21 06:37:50;;;;;;;1.00;0.90;;;;;20.20;100593.00;;;;5095726;28;20194;-76
2021/06/21 06:40:19;;;;;;;1.13;0.70;;;;;20.20;100594.00;;;;5097399;28;20568;-77
2021/06/21 06:42:47;;;;;;;0.77;0.73;;;;;20.20;100591.00;;;;5105499;28;20293;-76
2021/06/21 06:45:15;;;;;;;2.30;0.77;;;;;20.20;100597.00;;;;5108109;28;20197;-76
2021/06/21 06:47:43;;;;;;;1.08;0.55;;;;;20.20;100606.00;;;;5105418;28;20205;-75
2021/06/21 06:50:12;;;;;;;0.82;0.70;;;;;20.20;100607.00;;;;5106531;28;20205;-76
2021/06/21 06:52:40;;;;;;;1.00;0.70;;;;;20.20;100609.00;;;;5107849;28;20221;-75
2021/06/21 06:57:53;;;;;;;1.20;0.80;;;;;20.20;100617.00;;;;5100419;28;20212;-76
2021/06/21 07:00:21;;;;;;;1.70;0.70;;;;;20.10;100610.00;;;;5104552;28;20228;-76
2021/06/21 07:02:48;;;;;;;0.73;0.60;;;;;20.10;100620.00;;;;5100619;28;20198;-76
2021/06/21 07:05:17;;;;;;;1.52;0.70;;;;;20.10;100619.00;;;;5103624;28;20293;-76
2021/06/21 07:07:44;;;;;;;0.88;0.80;;;;;20.20;100629.00;;;;5099978;28;20197;-75
2021/06/21 07:10:12;;;;;;;0.60;0.50;;;;;20.20;100635.00;;;;5104804;28;20197;-75
2021/06/21 07:12:40;;;;;;;0.93;0.70;;;;;20.10;100637.00;;;;5103544;28;20193;-76
2021/06/21 07:15:08;;;;;;;1.15;0.90;;;;;20.10;100635.00;;;;5100622;28;20674;-76
2021/06/21 07:17:35;;;;;;;0.95;0.77;;;;;20.10;100638.00;;;;5102338;28;20551;-76
2021/06/21 07:20:03;;;;;;;1.05;0.80;;;;;20.20;100644.00;;;;5104534;28;20213;-76
2021/06/21 07:22:31;;;;;;;0.80;0.57;;;;;20.20;100650.00;;;;5104081;28;20198;-77
2021/06/21 07:24:59;;;;;;;0.90;0.70;;;;;20.20;100648.00;;;;5103815;28;20194;-76
2021/06/21 07:27:26;;;;;;;1.58;0.80;;;;;20.20;100650.00;;;;5102872;28;20209;-76
2021/06/21 07:29:54;;;;;;;1.27;1.05;;;;;20.20;100659.00;;;;5104659;28;20744;-74
2021/06/21 07:32:21;;;;;;;1.13;0.75;;;;;20.20;100650.00;;;;5102060;28;20194;-74
2021/06/21 07:34:49;;;;;;;1.23;0.70;;;;;20.20;100657.00;;;;5102765;28;20197;-75
2021/06/21 07:37:16;;;;;;;1.25;0.65;;;;;20.20;100658.00;;;;5106764;28;20610;-76
2021/06/21 07:39:44;;;;;;;1.08;0.57;;;;;20.20;100666.00;;;;5107875;28;20197;-75
2021/06/21 07:42:12;;;;;;;2.25;0.88;;;;;20.20;100663.00;;;;5107474;28;20217;-73
2021/06/21 07:44:39;;;;;;;1.13;0.68;;;;;20.20;100662.00;;;;5104740;28;20676;-76
2021/06/21 07:47:07;;;;;;;0.77;0.77;;;;;20.20;100672.00;;;;5105254;28;20194;-77
2021/06/21 07:49:34;;;;;;;0.90;0.82;;;;;20.30;100661.00;;;;5103096;28;20673;-77
2021/06/21 07:52:01;;;;;;;1.42;0.57;;;;;20.30;100667.00;;;;5110491;28;20213;-77
2021/06/21 07:54:29;;;;;;;0.93;0.75;;;;;20.30;100673.00;;;;5109911;28;20209;-77
2021/06/21 07:56:57;;;;;;;1.15;0.82;;;;;20.30;100668.00;;;;5110973;28;20596;-74
2021/06/21 07:59:25;;;;;;;0.70;0.60;;;;;20.40;100673.00;;;;5111447;28;20194;-75
2021/06/21 08:01:52;;;;;;;1.58;0.88;;;;;20.40;100682.00;;;;5109957;28;20313;-75
2021/06/21 08:04:20;;;;;;;2.22;1.08;;;;;20.40;100682.00;;;;5111703;28;20200;-75
2021/06/21 08:06:47;;;;;;;1.17;0.85;;;;;20.40;100685.00;;;;5109635;28;20686;-75
2021/06/21 08:09:14;;;;;;;0.80;0.70;;;;;20.50;100679.00;;;;5109982;28;20558;-75
2021/06/21 08:11:42;;;;;;;2.53;0.90;;;;;20.50;100682.00;;;;5091385;28;20210;-74
2021/06/21 08:14:10;;;;;;;0.90;0.68;;;;;20.50;100684.00;;;;5099492;28;20201;-75
2021/06/21 08:16:38;;;;;;;1.15;1.00;;;;;20.50;100685.00;;;;5110501;28;20197;-75
2021/06/21 08:19:05;;;;;;;1.38;0.85;;;;;20.60;100690.00;;;;5110473;28;20194;-75
2021/06/21 08:21:32;;;;;;;1.10;0.90;;;;;20.60;100692.00;;;;5110954;28;20316;-75
2021/06/21 08:24:00;;;;;;;5.03;1.20;;;;;20.60;100687.00;;;;5111145;28;20565;-75
2021/06/21 08:26:27;;;;;;;1.20;0.93;;;;;20.60;100684.00;;;;5106551;28;20194;-75
2021/06/21 08:28:54;;;;;;;1.55;0.90;;;;;20.60;100695.00;;;;5110456;28;20197;-75
2021/06/21 08:31:23;;;;;;;1.20;1.10;;;;;20.60;100688.00;;;;5109899;28;20205;-75
2021/06/21 08:33:50;;;;;;;1.15;1.02;;;;;20.60;100699.00;;;;5109944;28;20570;-76
2021/06/21 08:36:18;;;;;;;0.98;0.73;;;;;20.60;100693.00;;;;5100634;28;20267;-75
2021/06/21 08:38:45;;;;;;;1.33;0.85;;;;;20.60;100689.00;;;;5089687;28;20194;-75
2021/06/21 08:41:12;;;;;;;0.90;0.85;;;;;20.60;100701.00;;;;5104018;28;20224;-75
2021/06/21 08:43:40;;;;;;;1.35;1.05;;;;;20.60;100706.00;;;;5109054;28;20197;-75
2021/06/21 08:46:08;;;;;;;2.13;1.02;;;;;20.60;100697.00;;;;5096534;28;20210;-75
2021/06/21 08:48:41;;;;;;;1.52;0.75;;;;;20.60;100709.00;;;;5091754;28;20198;-74
2021/06/21 08:51:10;;;;;;;1.20;0.95;;;;;20.60;100709.00;;;;5100793;28;20194;-75
2021/06/21 08:53:38;;;;;;;1.98;1.27;;;;;20.60;100716.00;;;;5101766;28;20250;-75
2021/06/21 08:56:06;;;;;;;1.40;0.90;;;;;20.70;100717.00;;;;5108984;28;20205;-74
2021/06/21 08:58:33;;;;;;;1.00;0.90;;;;;20.70;100717.00;;;;5109784;28;20682;-75
2021/06/21 09:01:01;;;;;;;1.42;0.95;;;;;20.70;100727.00;;;;5106559;28;20217;-75
2021/06/21 09:03:28;;;;;;;1.20;1.10;;;;;20.80;100734.00;;;;5110561;28;20198;-75
2021/06/21 09:05:57;;;;;;;1.40;0.95;;;;;20.80;100738.00;;;;5109695;28;20201;-75
2021/06/21 09:08:24;;;;;;;1.35;0.90;;;;;20.80;100744.00;;;;5108587;28;20212;-76
2021/06/21 09:10:52;;;;;;;1.00;0.90;;;;;20.80;100744.00;;;;5109364;28;20202;-75
2021/06/21 09:13:20;;;;;;;1.70;1.10;;;;;20.80;100751.00;;;;5090302;28;20656;-75
2021/06/21 09:15:52;;;;;;;1.73;0.98;;;;;20.90;100749.00;;;;5105321;28;20198;-75
2021/06/21 09:18:27;;;;;;;1.10;1.02;;;;;20.90;100746.00;;;;5103476;28;20194;-75
2021/06/21 09:21:21;;;;;;;1.13;0.73;;;;;20.90;100750.00;;;;5104814;28;20220;-75
2021/06/21 09:23:51;;;;;;;1.27;1.10;;;;;21.00;100751.00;;;;5109786;28;20206;-74
2021/06/21 09:26:19;;;;;;;1.23;1.00;;;;;21.10;100760.00;;;;5100644;28;20678;-75
2021/06/21 09:28:47;;;;;;;0.90;0.73;;;;;21.10;100761.00;;;;5108395;28;20192;-75
2021/06/21 09:31:14;;;;;;;2.05;1.00;;;;;21.10;100768.00;;;;5101983;28;20209;-75
2021/06/21 09:33:42;;;;;;;1.30;1.20;;;;;21.20;100776.00;;;;5096083;28;20575;-75
2021/06/21 09:36:10;;;;;;;1.65;1.13;;;;;21.20;100784.00;;;;5108413;28;20213;-75
2021/06/21 09:38:38;;;;;;;1.55;1.13;;;;;21.30;100780.00;;;;5110035;28;20212;-76
2021/06/21 09:41:06;;;;;;;1.50;1.20;;;;;21.30;100781.00;;;;5105944;28;20220;-75
2021/06/21 09:43:35;;;;;;;1.00;0.90;;;;;21.30;100794.00;;;;5107385;28;20198;-74
2021/06/21 09:46:09;;;;;;;1.52;0.98;;;;;21.40;100793.00;;;;5109432;28;20612;-75
2021/06/21 09:48:38;;;;;;;1.05;0.95;;;;;21.30;100793.00;;;;5109288;28;20193;-75
2021/06/21 09:51:24;;;;;;;1.65;1.40;;;;;21.20;100795.00;;;;5108797;28;20205;-75
2021/06/21 09:54:11;;;;;;;1.73;1.30;;;;;21.20;100798.00;;;;5108950;28;20496;-74
2021/06/21 09:56:42;;;;;;;0.98;0.88;;;;;21.40;100801.00;;;;5106586;28;20189;-75
2021/06/21 09:59:24;;;;;;;3.22;1.33;;;;;21.30;100804.00;;;;5108917;28;20209;-75
2021/06/21 10:02:03;;;;;;;1.90;0.90;;;;;21.30;100803.00;;;;5098433;28;20694;-75
2021/06/21 10:04:30;;;;;;;1.08;0.90;;;;;21.40;100798.00;;;;5105655;28;20205;-75
2021/06/21 10:06:58;;;;;;;1.00;0.75;;;;;21.30;100800.00;;;;5104880;28;20220;-75
2021/06/21 10:09:27;;;;;;;1.10;1.00;;;;;21.40;100792.00;;;;5103859;28;20288;-75
2021/06/21 10:11:55;;;;;;;1.83;0.75;;;;;21.30;100785.00;;;;5107811;28;20201;-75
2021/06/21 10:14:26;;;;;;;3.08;1.00;;;;;21.30;100797.00;;;;5109002;28;20209;-74
2021/06/21 10:16:55;;;;;;;3.47;1.10;;;;;21.20;100791.00;;;;5107976;28;20208;-74
2021/06/21 10:19:23;;;;;;;2.53;0.95;;;;;21.20;100803.00;;;;5106983;28;20194;-74
2021/06/21 10:21:54;;;;;;;1.98;0.70;;;;;21.20;100798.00;;;;5109396;28;20221;-75
2021/06/21 10:24:26;;;;;;;1.13;0.80;;;;;21.20;100792.00;;;;5105533;28;20205;-75
2021/06/21 10:26:55;;;;;;;1.00;0.88;;;;;21.20;100790.00;;;;5108576;28;20220;-74
2021/06/21 10:29:23;;;;;;;1.63;0.80;;;;;21.20;100795.00;;;;5108712;28;20663;-75
2021/06/21 10:31:53;;;;;;;1.15;0.68;;;;;21.10;100792.00;;;;5100935;28;20198;-74
2021/06/21 10:34:22;;;;;;;1.83;0.88;;;;;21.10;100787.00;;;;5104972;28;20200;-76
2021/06/21 10:36:52;;;;;;;1.00;0.82;;;;;21.10;100797.00;;;;5108383;28;20248;-75
2021/06/21 10:39:21;;;;;;;1.25;0.80;;;;;21.10;100786.00;;;;5106844;28;20313;-75
2021/06/21 10:42:18;;;;;;;1.73;0.90;;;;;21.00;100806.00;;;;5101379;28;20214;-75
2021/06/21 10:44:54;;;;;;;0.80;0.73;;;;;21.10;100810.00;;;;5105650;28;20194;-75
2021/06/21 10:47:40;;;;;;;0.90;0.80;;;;;21.00;100809.00;;;;5100280;28;20228;-74
2021/06/21 10:50:11;;;;;;;0.60;0.60;;;;;21.20;100807.00;;;;5108366;28;20193;-74
2021/06/21 10:52:46;;;;;;;0.95;0.80;;;;;21.20;100813.00;;;;5096484;28;20218;-74
2021/06/21 10:55:37;;;;;;;0.85;0.60;;;;;21.20;100817.00;;;;5103072;28;20197;-76
2021/06/21 10:58:30;;;;;;;0.55;0.45;;;;;21.30;100823.00;;;;5109050;28;20205;-76
2021/06/21 11:01:11;;;;;;;1.42;0.80;;;;;21.50;100833.00;;;;5104213;28;20240;-75
2021/06/21 11:03:38;;;;;;;1.00;0.70;;;;;21.50;100826.00;;;;5102247;28;20197;-76
2021/06/21 11:06:08;;;;;;;3.15;0.70;;;;;21.60;100835.00;;;;5089475;28;20214;-75
2021/06/21 11:08:46;;;;;;;1.38;1.10;;;;;21.50;100838.00;;;;5107282;28;20193;-75
2021/06/21 11:11:42;;;;;;;1.40;1.10;;;;;21.50;100838.00;;;;5105417;28;20201;-75
2021/06/21 11:14:16;;;;;;;1.17;0.70;;;;;21.60;100854.00;;;;5106412;28;20262;-75
2021/06/21 11:16:46;;;;;;;1.30;0.77;;;;;21.60;100862.00;;;;5106525;28;20213;-75
2021/06/21 11:19:32;;;;;;;2.25;0.95;;;;;21.50;100866.00;;;;5107967;28;20251;-76
2021/06/21 11:22:05;;;;;;;1.48;0.85;;;;;21.60;100865.00;;;;5104635;28;20717;-76
2021/06/21 11:24:58;;;;;;;1.27;0.88;;;;;21.50;100861.00;;;;5111882;28;21090;-76
2021/06/21 11:27:40;;;;;;;0.88;0.80;;;;;21.60;100863.00;;;;5109965;28;20204;-76
2021/06/21 11:30:23;;;;;;;2.47;1.00;;;;;21.60;100867.00;;;;5110100;28;20288;-75
2021/06/21 11:32:56;;;;;;;2.20;0.95;;;;;21.70;100871.00;;;;5110003;28;20202;-76
2021/06/21 11:35:56;;;;;;;1.40;1.05;;;;;21.60;100864.00;;;;5109753;28;20225;-75
2021/06/21 11:38:38;;;;;;;2.35;0.98;;;;;21.70;100871.00;;;;5077993;28;20194;-76
2021/06/21 11:41:24;;;;;;;3.10;1.73;;;;;21.70;100864.00;;;;5106448;28;20190;-76
2021/06/21 11:43:54;;;;;;;2.35;1.10;;;;;21.80;100867.00;;;;5110863;28;20570;-75
2021/06/21 11:46:44;;;;;;;0.98;0.70;;;;;21.70;100884.00;;;;5111558;28;20209;-76
2021/06/21 11:49:14;;;;;;;1.33;0.90;;;;;21.90;100886.00;;;;5112335;28;20824;-75
2021/06/21 11:51:57;;;;;;;1.33;0.80;;;;;21.80;100905.00;;;;5111893;28;20247;-76
2021/06/21 11:54:25;;;;;;;0.70;0.70;;;;;22.00;100914.00;;;;5109506;28;20196;-76
2021/06/21 11:56:53;;;;;;;1.48;0.82;;;;;22.00;100918.00;;;;5111670;28;20201;-75
2021/06/21 11:59:34;;;;;;;1.20;0.70;;;;;21.90;100925.00;;;;5109532;28;20221;-75
2021/06/21 12:02:09;;;;;;;0.63;0.63;;;;;22.00;100933.00;;;;5101063;28;20213;-76
2021/06/21 12:04:37;;;;;;;1.50;1.00;;;;;22.10;100945.00;;;;5111615;28;20196;-75
2021/06/21 12:07:06;;;;;;;1.05;0.80;;;;;22.10;100947.00;;;;5104129;28;20435;-75
2021/06/21 12:09:39;;;;;;;1.38;0.80;;;;;22.10;100951.00;;;;5105193;27;20293;-76
2021/06/21 12:12:07;;;;;;;2.28;0.73;;;;;22.20;100949.00;;;;5108492;28;20282;-75
2021/06/21 12:14:35;;;;;;;3.92;1.30;;;;;22.30;100947.00;;;;5109922;28;20197;-76
2021/06/21 12:17:07;;;;;;;1.10;0.80;;;;;22.30;100959.00;;;;5110615;28;20193;-75
2021/06/21 12:19:34;;;;;;;2.72;0.90;;;;;22.20;100951.00;;;;5092478;28;20210;-75
2021/06/21 12:22:02;;;;;;;2.65;0.70;;;;;22.20;100950.00;;;;5090826;28;20591;-75
2021/06/21 12:24:31;;;;;;;2.08;0.90;;;;;22.20;100944.00;;;;5101499;28;20655;-75
2021/06/21 12:27:00;;;;;;;1.48;0.80;;;;;22.20;100959.00;;;;5111111;28;20285;-75